Terminal Aerodrome Forecast
Issued by NWS Mt. Holly, NJ

Home | Current Version | Previous Version | Text Only | Print | Product List | Glossary On
Versions: 1 2 3 4 5 6 7 8 9 10 11 12 13 14 15 16 17 18 19 20 21 22 23 24 25 26 27 28 29 30 31 32 33 34
000
FTUS41 KPHI 022130 AAD
TAFPHL
TAF AMD
KPHL 022130Z 0221/0324 19005KT P6SM BKN015
     FM022245 VRB04KT P6SM SCT015 SCT250
     FM030200 08006KT 5SM SHRA BR SCT015 BKN035
      TEMPO 0303/0305 2SM TSRA BR BKN010 OVC035CB
     FM030500 06007KT 3SM -SHRA BR OVC006
     FM031200 04009KT 4SM -DZ BR OVC005
     FM031500 02008KT 6SM BR OVC008
     FM031800 03007KT P6SM OVC012=

USA.gov is the U.S. government's official web portal to all federal, state and local government web resources and services.